createdAt,value
2023-03-01T00:01:29.575Z,6.15
2023-03-01T00:03:57.726Z,4.15
2023-03-01T00:06:25.443Z,6.40
2023-03-01T00:08:53.221Z,8.43
2023-03-01T00:11:27.094Z,7.47
2023-03-01T00:13:57.374Z,5.25
2023-03-01T00:16:35.201Z,6.35
2023-03-01T00:19:03.635Z,5.78
2023-03-01T00:21:31.709Z,4.50
2023-03-01T00:23:59.799Z,4.45
2023-03-01T00:26:28.531Z,8.25
2023-03-01T00:28:56.726Z,5.00
2023-03-01T00:31:27.458Z,2.03
2023-03-01T00:34:00.820Z,4.07
2023-03-01T00:36:35.257Z,3.30
2023-03-01T00:39:05.306Z,3.50
2023-03-01T00:41:32.640Z,4.38
2023-03-01T00:44:02.852Z,8.15
2023-03-01T00:48:59.740Z,5.85
2023-03-01T00:51:28.828Z,9.57
2023-03-01T00:53:57.816Z,4.93
2023-03-01T00:56:25.619Z,7.60
2023-03-01T00:58:53.184Z,5.35
2023-03-01T01:01:23.757Z,6.15
2023-03-01T01:04:00.275Z,6.22
2023-03-01T01:06:55.862Z,6.25
2023-03-01T01:09:23.139Z,4.93
2023-03-01T01:11:52.199Z,1.85
2023-03-01T01:14:20.772Z,2.05
2023-03-01T01:16:47.857Z,4.18
2023-03-01T01:19:15.824Z,11.52
2023-03-01T01:21:45.012Z,3.60
2023-03-01T01:24:13.108Z,2.08
2023-03-01T01:26:40.558Z,3.53
2023-03-01T01:29:08.097Z,3.25
2023-03-01T01:31:36.749Z,6.57
2023-03-01T01:34:06.105Z,4.72
2023-03-01T01:36:34.068Z,3.05
2023-03-01T01:39:04.028Z,4.05
2023-03-01T01:41:31.759Z,2.75
2023-03-01T01:44:24.829Z,3.28
2023-03-01T01:47:21.529Z,3.17
2023-03-01T01:49:59.079Z,6.15
2023-03-01T01:52:35.789Z,4.03
2023-03-01T01:55:17.366Z,3.53
2023-03-01T01:57:48.924Z,7.00
2023-03-01T02:00:25.670Z,3.13
2023-03-01T02:02:57.985Z,5.72
2023-03-01T02:05:34.131Z,4.03
2023-03-01T02:08:02.049Z,2.60
2023-03-01T02:10:29.773Z,2.35
2023-03-01T02:12:57.813Z,9.52
2023-03-01T02:15:27.926Z,1.83
2023-03-01T02:17:56.688Z,2.97
2023-03-01T02:21:00.081Z,3.42
2023-03-01T02:23:27.629Z,9.10
2023-03-01T02:26:08.938Z,4.30
2023-03-01T02:28:41.277Z,6.05
2023-03-01T02:31:29.549Z,2.95
2023-03-01T02:33:57.824Z,5.07
2023-03-01T02:36:29.650Z,6.35
2023-03-01T02:38:59.041Z,12.27
2023-03-01T02:41:28.818Z,8.98
2023-03-01T02:43:57.256Z,9.07
2023-03-01T02:46:26.345Z,6.57
2023-03-01T02:48:58.679Z,4.68
2023-03-01T02:51:35.355Z,5.57
2023-03-01T02:54:02.865Z,2.63
2023-03-01T02:56:31.304Z,4.60
2023-03-01T02:59:01.849Z,5.97
2023-03-01T03:01:37.598Z,8.38
2023-03-01T03:04:06.399Z,2.92
2023-03-01T03:06:34.321Z,3.70
2023-03-01T03:09:02.012Z,3.50
2023-03-01T03:11:29.822Z,4.53
2023-03-01T03:13:57.323Z,4.75
2023-03-01T03:16:25.708Z,3.53
2023-03-01T03:18:53.355Z,4.82
2023-03-01T03:21:23.722Z,5.75
2023-03-01T03:23:51.668Z,1.63
2023-03-01T03:26:21.553Z,6.40
2023-03-01T03:28:49.078Z,2.92
2023-03-01T03:31:16.663Z,4.70
2023-03-01T03:33:44.024Z,3.08
2023-03-01T03:36:14.826Z,2.80
2023-03-01T03:38:42.059Z,6.07
2023-03-01T03:41:09.918Z,3.92
2023-03-01T03:43:38.850Z,5.22
2023-03-01T03:46:06.945Z,4.28
2023-03-01T03:48:45.271Z,4.72
2023-03-01T03:51:17.577Z,8.25
2023-03-01T03:53:45.356Z,5.38
2023-03-01T03:56:12.981Z,11.52
2023-03-01T03:58:40.603Z,3.92
2023-03-01T04:01:08.335Z,2.55
2023-03-01T04:03:36.290Z,3.38
2023-03-01T04:06:05.014Z,2.25
2023-03-01T04:08:32.520Z,1.50
2023-03-01T04:11:24.368Z,2.60
2023-03-01T04:13:52.439Z,2.72
2023-03-01T04:16:22.595Z,4.88
2023-03-01T04:21:21.355Z,4.80
2023-03-01T04:23:48.670Z,2.75
2023-03-01T04:26:18.847Z,6.32
2023-03-01T04:31:18.640Z,2.47
2023-03-01T04:33:54.807Z,3.55
2023-03-01T04:36:26.149Z,6.60
2023-03-01T04:38:53.795Z,4.88
2023-03-01T04:41:23.427Z,5.00
2023-03-01T04:43:51.219Z,2.50
2023-03-01T04:46:21.414Z,8.60
2023-03-01T04:51:16.993Z,8.52
2023-03-01T04:53:44.724Z,7.25
2023-03-01T04:56:12.632Z,3.15
2023-03-01T04:58:39.902Z,4.50
2023-03-01T05:01:18.065Z,3.60
2023-03-01T05:03:46.397Z,6.32
2023-03-01T05:06:14.037Z,5.47
2023-03-01T05:08:42.534Z,7.50
2023-03-01T05:11:10.534Z,8.50
2023-03-01T05:13:38.535Z,6.53
2023-03-01T05:16:08.234Z,5.32
2023-03-01T05:18:36.671Z,4.68
2023-03-01T05:21:13.397Z,5.53
2023-03-01T05:23:41.820Z,12.63
2023-03-01T05:26:22.454Z,9.82
2023-03-01T05:29:00.068Z,9.43
2023-03-01T05:31:28.206Z,7.65
2023-03-01T05:33:55.573Z,11.20
2023-03-01T05:36:22.968Z,10.27
2023-03-01T05:38:50.716Z,5.00
2023-03-01T05:41:18.369Z,16.45
2023-03-01T05:43:46.193Z,4.10
2023-03-01T05:46:14.464Z,3.28
2023-03-01T05:48:42.150Z,5.53
2023-03-01T05:51:09.484Z,5.70
2023-03-01T05:53:37.039Z,14.50
2023-03-01T05:56:07.674Z,2.53
2023-03-01T05:58:35.246Z,10.60
2023-03-01T06:01:02.695Z,8.65
2023-03-01T06:03:30.391Z,14.65
2023-03-01T06:05:58.477Z,47.83
2023-03-01T06:08:28.348Z,16.65
2023-03-01T06:10:59.394Z,21.15
2023-03-01T06:13:29.280Z,23.27
2023-03-01T06:15:57.028Z,102.88
2023-03-01T06:18:24.721Z,54.33
2023-03-01T06:20:56.864Z,34.22
2023-03-01T06:23:25.397Z,37.50
2023-03-01T06:25:52.918Z,75.55
2023-03-01T06:28:20.328Z,80.88
2023-03-01T06:30:48.054Z,54.67
2023-03-01T06:33:15.717Z,48.85
2023-03-01T06:35:43.453Z,50.55
2023-03-01T06:38:11.017Z,104.88
2023-03-01T06:40:38.551Z,86.85
2023-03-01T06:43:08.603Z,31.02
2023-03-01T06:45:36.416Z,37.72
2023-03-01T06:48:08.379Z,100.80
2023-03-01T06:50:36.733Z,99.95
2023-03-01T06:53:04.769Z,80.82
2023-03-01T06:55:33.559Z,30.73
2023-03-01T06:58:01.714Z,32.13
2023-03-01T07:00:29.908Z,97.70
2023-03-01T07:03:00.118Z,94.65
2023-03-01T07:05:27.640Z,94.03
2023-03-01T07:07:57.825Z,46.30
2023-03-01T07:10:25.496Z,58.05
2023-03-01T07:12:57.260Z,99.50
2023-03-01T07:15:27.598Z,126.85
2023-03-01T07:17:55.969Z,103.40
2023-03-01T07:20:26.197Z,52.17
2023-03-01T07:22:54.445Z,45.45
2023-03-01T07:25:22.457Z,79.78
2023-03-01T07:27:53.412Z,136.88
2023-03-01T07:30:22.065Z,73.68
2023-03-01T07:32:50.005Z,58.13
2023-03-01T07:35:19.810Z,48.00
2023-03-01T07:37:49.611Z,104.55
2023-03-01T07:40:17.503Z,67.82
2023-03-01T07:42:45.002Z,87.93
2023-03-01T07:45:17.672Z,35.78
2023-03-01T07:47:45.568Z,44.75
2023-03-01T07:50:14.529Z,86.70
2023-03-01T07:52:48.502Z,103.70
2023-03-01T07:55:18.652Z,96.95
2023-03-01T07:57:46.512Z,65.78
2023-03-01T08:00:14.494Z,36.28
2023-03-01T08:02:46.941Z,80.25
2023-03-01T08:05:14.752Z,78.22
2023-03-01T08:07:42.237Z,82.82
2023-03-01T08:10:10.460Z,54.75
2023-03-01T08:12:42.355Z,70.53
2023-03-01T08:15:10.677Z,41.67
2023-03-01T08:17:38.444Z,90.75
2023-03-01T08:20:08.098Z,73.68
2023-03-01T08:22:35.833Z,70.78
2023-03-01T08:25:05.780Z,51.03
2023-03-01T08:30:00.943Z,93.07
2023-03-01T08:32:28.678Z,73.05
2023-03-01T08:34:56.321Z,37.03
2023-03-01T08:37:26.941Z,50.10
2023-03-01T08:39:56.538Z,75.80
2023-03-01T08:42:24.237Z,96.68
2023-03-01T08:44:51.754Z,59.25
2023-03-01T08:47:19.350Z,31.58
2023-03-01T08:49:46.691Z,57.67
2023-03-01T08:52:14.161Z,20.10
2023-03-01T08:54:41.815Z,30.25
2023-03-01T08:57:11.722Z,19.67
2023-03-01T09:02:11.419Z,18.00
2023-03-01T09:04:39.335Z,50.22
2023-03-01T09:07:06.624Z,28.08
2023-03-01T09:09:36.834Z,19.83
2023-03-01T09:12:06.120Z,18.05
2023-03-01T09:14:34.709Z,18.23
2023-03-01T09:17:04.197Z,28.35
2023-03-01T09:19:32.502Z,20.27
2023-03-01T09:22:00.784Z,24.13
2023-03-01T09:24:32.415Z,19.83
2023-03-01T09:27:02.135Z,23.15
2023-03-01T09:32:00.064Z,19.67
2023-03-01T09:34:31.260Z,23.00
2023-03-01T09:37:03.511Z,27.25
2023-03-01T09:39:31.052Z,17.65
2023-03-01T09:42:06.614Z,32.03
2023-03-01T09:45:11.766Z,26.15
2023-03-01T09:47:39.439Z,19.25
2023-03-01T09:50:25.059Z,14.57
2023-03-01T09:53:06.913Z,22.25
2023-03-01T09:56:00.040Z,27.58
2023-03-01T09:59:01.199Z,12.52
2023-03-01T10:01:35.761Z,28.00
2023-03-01T10:04:09.140Z,25.17
2023-03-01T10:06:36.684Z,21.15
2023-03-01T10:09:17.249Z,35.67
2023-03-01T10:11:49.792Z,39.50
2023-03-01T10:14:29.442Z,23.33
2023-03-01T10:17:32.184Z,24.70
2023-03-01T10:20:17.948Z,12.95
2023-03-01T10:22:51.485Z,14.95
2023-03-01T10:25:44.041Z,20.88
2023-03-01T10:28:48.595Z,18.60
2023-03-01T10:31:19.168Z,15.50
2023-03-01T10:33:48.950Z,19.45
2023-03-01T10:38:58.008Z,15.68
2023-03-01T10:41:29.106Z,23.63
2023-03-01T10:44:01.744Z,13.15
2023-03-01T10:46:36.599Z,14.45
2023-03-01T10:49:24.368Z,16.77
2023-03-01T10:51:55.426Z,12.63
2023-03-01T10:54:42.661Z,13.38
2023-03-01T10:57:40.053Z,21.08
2023-03-01T11:00:27.462Z,22.52
2023-03-01T11:03:00.978Z,17.40
2023-03-01T11:05:31.446Z,14.60
2023-03-01T11:08:00.364Z,16.48
2023-03-01T11:10:34.664Z,13.50
2023-03-01T11:13:19.462Z,12.98
2023-03-01T11:16:13.764Z,10.38
2023-03-01T11:21:17.947Z,19.55
2023-03-01T11:23:47.984Z,19.42
2023-03-01T11:26:17.261Z,10.73
2023-03-01T11:28:46.676Z,16.45
2023-03-01T11:31:14.411Z,17.15
2023-03-01T11:33:47.961Z,16.38
2023-03-01T11:36:43.831Z,20.50
2023-03-01T11:39:32.368Z,27.65
2023-03-01T11:42:29.582Z,23.25
2023-03-01T11:45:03.235Z,23.85
2023-03-01T11:48:09.324Z,20.02
2023-03-01T11:50:47.844Z,15.25
2023-03-01T11:53:51.112Z,13.68
2023-03-01T11:56:46.761Z,31.67
2023-03-01T11:59:19.806Z,21.58
2023-03-01T12:02:06.474Z,31.77
2023-03-01T12:05:16.463Z,29.17
2023-03-01T12:08:06.018Z,25.90
2023-03-01T12:11:09.104Z,19.25
2023-03-01T12:14:34.446Z,19.95
2023-03-01T12:17:14.753Z,20.10
2023-03-01T12:19:57.987Z,21.75
2023-03-01T12:22:40.669Z,21.00
2023-03-01T12:25:23.320Z,28.63
2023-03-01T12:28:10.158Z,22.45
2023-03-01T12:30:59.376Z,18.15
2023-03-01T12:33:32.698Z,17.35
2023-03-01T12:36:32.263Z,27.33
2023-03-01T12:39:40.992Z,37.22
2023-03-01T12:42:11.263Z,20.40
2023-03-01T12:45:03.813Z,23.17
2023-03-01T12:47:49.337Z,17.70
2023-03-01T12:50:24.727Z,13.82
2023-03-01T12:52:58.533Z,16.52
2023-03-01T12:55:36.860Z,21.90
2023-03-01T12:58:49.597Z,17.55
2023-03-01T13:01:38.306Z,26.40
2023-03-01T13:04:11.973Z,16.17
2023-03-01T13:06:58.739Z,25.80
2023-03-01T13:09:36.377Z,18.77
2023-03-01T13:12:08.049Z,27.88
2023-03-01T13:14:38.558Z,22.45
2023-03-01T13:17:42.112Z,15.20
2023-03-01T13:20:15.207Z,28.75
2023-03-01T13:22:54.485Z,22.25
2023-03-01T13:25:25.717Z,41.60
2023-03-01T13:28:33.649Z,34.63
2023-03-01T13:31:02.202Z,15.18
2023-03-01T13:33:29.561Z,19.67
2023-03-01T13:35:58.582Z,26.42
2023-03-01T13:38:39.791Z,16.33
2023-03-01T13:41:07.871Z,16.73
2023-03-01T13:43:41.614Z,18.33
2023-03-01T13:46:32.461Z,21.40
2023-03-01T13:49:00.435Z,20.67
2023-03-01T13:51:29.710Z,16.40
2023-03-01T13:54:00.095Z,32.75
2023-03-01T13:56:34.724Z,19.77
2023-03-01T13:59:14.418Z,19.45
2023-03-01T14:01:43.724Z,12.07
2023-03-01T14:04:41.636Z,18.13
2023-03-01T14:07:20.975Z,23.17
2023-03-01T14:09:53.383Z,14.88
2023-03-01T14:12:28.132Z,20.70
2023-03-01T14:15:20.342Z,20.58
2023-03-01T14:18:07.499Z,17.20
2023-03-01T14:20:52.349Z,18.92
2023-03-01T14:23:24.047Z,15.50
2023-03-01T14:25:52.818Z,19.77
2023-03-01T14:28:27.767Z,11.90
2023-03-01T14:30:58.756Z,17.40
2023-03-01T14:33:27.590Z,18.80
2023-03-01T14:36:05.083Z,21.55
2023-03-01T14:38:35.753Z,18.98
2023-03-01T14:41:12.016Z,16.15
2023-03-01T14:43:46.397Z,19.75
2023-03-01T14:46:34.267Z,17.75
2023-03-01T14:49:14.024Z,21.50
2023-03-01T14:51:44.228Z,31.42
2023-03-01T14:54:42.434Z,23.67
2023-03-01T14:57:38.984Z,44.10
2023-03-01T15:00:08.415Z,35.45
2023-03-01T15:02:36.303Z,23.25
2023-03-01T15:05:08.539Z,24.27
2023-03-01T15:07:41.153Z,12.70
2023-03-01T15:10:23.903Z,16.00
2023-03-01T15:12:53.931Z,12.98
2023-03-01T15:15:22.650Z,13.07
2023-03-01T15:17:56.535Z,12.40
2023-03-01T15:20:26.942Z,26.00
2023-03-01T15:22:55.036Z,19.55
2023-03-01T15:25:24.871Z,14.80
2023-03-01T15:27:56.507Z,15.57
2023-03-01T15:30:38.695Z,16.02
2023-03-01T15:33:30.702Z,12.85
2023-03-01T15:36:01.398Z,15.95
2023-03-01T15:38:32.940Z,14.95
2023-03-01T15:41:34.050Z,7.15
2023-03-01T15:44:02.600Z,23.33
2023-03-01T15:46:38.736Z,19.15
2023-03-01T15:49:25.864Z,35.42
2023-03-01T15:51:56.259Z,39.72
2023-03-01T15:54:26.619Z,16.05
2023-03-01T15:56:57.527Z,12.90
2023-03-01T15:59:24.787Z,30.48
2023-03-01T16:01:52.694Z,10.70
2023-03-01T16:04:24.410Z,18.75
2023-03-01T16:06:58.525Z,9.50
2023-03-01T16:09:27.276Z,18.05
2023-03-01T16:11:55.346Z,23.60
2023-03-01T16:14:25.932Z,20.42
2023-03-01T16:16:53.568Z,23.33
2023-03-01T16:19:21.300Z,15.57
2023-03-01T16:21:50.396Z,25.60
2023-03-01T16:24:18.324Z,15.90
2023-03-01T16:26:46.237Z,21.15
2023-03-01T16:29:13.618Z,21.73
2023-03-01T16:31:40.971Z,19.70
2023-03-01T16:34:08.873Z,26.95
2023-03-01T16:36:37.966Z,29.90
2023-03-01T16:39:05.766Z,20.88
2023-03-01T16:41:33.848Z,29.52
2023-03-01T16:44:01.979Z,19.70
2023-03-01T16:46:30.295Z,26.33
2023-03-01T16:48:58.368Z,20.00
2023-03-01T16:51:30.519Z,18.15
2023-03-01T16:54:00.527Z,27.83
2023-03-01T16:59:05.648Z,24.23
2023-03-01T17:01:40.456Z,25.85
2023-03-01T17:04:08.587Z,20.70
2023-03-01T17:06:38.332Z,36.22
2023-03-01T17:09:06.106Z,32.08
2023-03-01T17:11:34.130Z,21.42
2023-03-01T17:14:02.340Z,21.98
2023-03-01T17:16:30.015Z,30.70
2023-03-01T17:18:58.014Z,32.45
2023-03-01T17:21:26.303Z,32.83
2023-03-01T17:23:57.746Z,42.85
2023-03-01T17:26:25.465Z,45.90
2023-03-01T17:28:53.134Z,42.28
2023-03-01T17:31:21.009Z,29.33
2023-03-01T17:33:50.162Z,31.45
2023-03-01T17:36:18.209Z,36.05
2023-03-01T17:38:46.888Z,21.92
2023-03-01T17:41:16.118Z,16.92
2023-03-01T17:43:43.872Z,14.63
2023-03-01T17:46:11.887Z,10.40
2023-03-01T17:48:39.993Z,11.38
2023-03-01T17:51:12.960Z,14.52
2023-03-01T17:53:40.921Z,25.23
2023-03-01T17:56:11.676Z,15.45
2023-03-01T17:58:40.142Z,33.10
2023-03-01T18:01:09.179Z,24.27
2023-03-01T18:03:36.945Z,19.55
2023-03-01T18:06:04.715Z,20.65
2023-03-01T18:08:32.404Z,22.08
2023-03-01T18:11:00.730Z,6.32
2023-03-01T18:13:28.489Z,10.93
2023-03-01T18:16:00.980Z,10.82
2023-03-01T18:18:31.673Z,13.90
2023-03-01T18:21:02.061Z,14.68
2023-03-01T18:23:33.078Z,4.60
2023-03-01T18:26:05.342Z,3.65
2023-03-01T18:28:35.383Z,4.78
2023-03-01T18:31:05.814Z,6.65
2023-03-01T18:33:33.594Z,4.82
2023-03-01T18:36:01.174Z,9.70
2023-03-01T18:38:29.228Z,9.27
2023-03-01T18:40:56.752Z,7.38
2023-03-01T18:43:24.351Z,8.88
2023-03-01T18:45:58.245Z,8.73
2023-03-01T18:48:26.500Z,5.55
2023-03-01T18:50:56.629Z,6.30
2023-03-01T18:53:26.710Z,7.13
2023-03-01T18:55:54.332Z,10.82
2023-03-01T18:58:21.861Z,8.35
2023-03-01T19:00:49.635Z,7.13
2023-03-01T19:03:17.170Z,6.25
2023-03-01T19:05:47.186Z,7.43
2023-03-01T19:10:44.900Z,7.30
2023-03-01T19:13:12.550Z,13.05
2023-03-01T19:15:40.304Z,7.05
2023-03-01T19:18:09.745Z,2.83
2023-03-01T19:20:39.389Z,6.75
2023-03-01T19:23:07.340Z,6.88
2023-03-01T19:25:39.143Z,3.10
2023-03-01T19:28:06.750Z,6.07
2023-03-01T19:30:34.375Z,2.30
2023-03-01T19:33:01.780Z,2.78
2023-03-01T19:35:29.307Z,4.20
2023-03-01T19:37:56.880Z,4.25
2023-03-01T19:40:24.421Z,4.25
2023-03-01T19:42:52.033Z,9.27
2023-03-01T19:45:25.273Z,5.82
2023-03-01T19:47:59.663Z,7.43
2023-03-01T19:50:27.348Z,7.57
2023-03-01T19:52:54.798Z,8.32
2023-03-01T19:55:22.505Z,2.88
2023-03-01T19:57:50.426Z,5.07
2023-03-01T20:00:18.373Z,6.18
2023-03-01T20:02:46.058Z,7.45
2023-03-01T20:05:14.055Z,7.45
2023-03-01T20:07:42.661Z,5.45
2023-03-01T20:10:11.763Z,3.42
2023-03-01T20:12:39.480Z,3.92
2023-03-01T20:15:07.310Z,7.10
2023-03-01T20:17:35.950Z,7.68
2023-03-01T20:20:03.587Z,4.40
2023-03-01T20:22:30.963Z,1.27
2023-03-01T20:25:00.794Z,2.28
2023-03-01T20:27:28.496Z,5.85
2023-03-01T20:29:56.014Z,9.60
2023-03-01T20:32:23.934Z,2.97
2023-03-01T20:34:51.768Z,3.95
2023-03-01T20:37:23.040Z,3.78
2023-03-01T20:39:50.637Z,10.10
2023-03-01T20:42:18.292Z,9.10
2023-03-01T20:44:46.012Z,4.80
2023-03-01T20:47:14.371Z,3.78
2023-03-01T20:49:42.035Z,3.92
2023-03-01T20:52:09.433Z,2.17
2023-03-01T20:54:37.068Z,1.85
2023-03-01T20:57:06.101Z,4.10
2023-03-01T20:59:35.021Z,4.72
2023-03-01T21:02:02.612Z,8.30
2023-03-01T21:04:30.260Z,3.85
2023-03-01T21:06:57.787Z,3.95
2023-03-01T21:09:25.333Z,7.55
2023-03-01T21:11:53.120Z,7.63
2023-03-01T21:14:21.675Z,2.53
2023-03-01T21:16:49.026Z,5.18
2023-03-01T21:19:25.934Z,2.80
2023-03-01T21:21:54.031Z,7.40
2023-03-01T21:24:21.760Z,4.63
2023-03-01T21:26:49.153Z,6.78
2023-03-01T21:29:16.693Z,3.10
2023-03-01T21:31:44.566Z,3.70
2023-03-01T21:34:15.102Z,2.25
2023-03-01T21:36:44.726Z,1.15
2023-03-01T21:39:12.823Z,6.00
2023-03-01T21:41:40.627Z,2.42
2023-03-01T21:44:10.393Z,7.32
2023-03-01T21:46:39.481Z,3.50
2023-03-01T21:49:08.850Z,4.22
2023-03-01T21:51:36.943Z,3.75
2023-03-01T21:54:04.613Z,3.20
2023-03-01T21:56:35.172Z,5.90
2023-03-01T21:59:03.152Z,2.60
2023-03-01T22:01:30.824Z,7.47
2023-03-01T22:04:01.860Z,12.38
2023-03-01T22:06:31.268Z,6.07
2023-03-01T22:09:10.107Z,4.00
2023-03-01T22:11:39.918Z,3.20
2023-03-01T22:14:07.759Z,2.70
2023-03-01T22:16:36.786Z,7.70
2023-03-01T22:19:05.629Z,0.98
2023-03-01T22:21:34.172Z,4.20
2023-03-01T22:24:01.862Z,11.43
2023-03-01T22:26:38.055Z,5.78
2023-03-01T22:31:34.940Z,4.72
2023-03-01T22:34:02.881Z,4.03
2023-03-01T22:36:30.679Z,6.78
2023-03-01T22:39:02.021Z,1.77
2023-03-01T22:41:45.051Z,7.43
2023-03-01T22:44:13.926Z,3.58
2023-03-01T22:46:41.760Z,3.22
2023-03-01T22:49:10.057Z,3.22
2023-03-01T22:51:39.758Z,1.50
2023-03-01T22:54:09.927Z,2.92
2023-03-01T22:56:38.146Z,4.05
2023-03-01T22:59:08.668Z,2.97
2023-03-01T23:01:37.244Z,5.68
2023-03-01T23:04:05.152Z,2.65
2023-03-01T23:06:33.213Z,5.57
2023-03-01T23:09:03.122Z,3.50
2023-03-01T23:11:30.635Z,3.08
2023-03-01T23:13:59.295Z,5.53
2023-03-01T23:16:27.194Z,2.38
2023-03-01T23:19:00.798Z,3.85
2023-03-01T23:21:31.343Z,5.60
2023-03-01T23:23:58.986Z,8.73
2023-03-01T23:26:30.325Z,8.30
2023-03-01T23:28:58.205Z,5.50
2023-03-01T23:31:30.090Z,4.57
2023-03-01T23:33:57.931Z,7.43
2023-03-01T23:36:33.716Z,6.47
2023-03-01T23:39:04.801Z,3.83
2023-03-01T23:41:33.437Z,5.18
2023-03-01T23:44:02.126Z,3.58
2023-03-01T23:46:32.336Z,4.40
2023-03-01T23:49:00.880Z,1.65
2023-03-01T23:51:28.525Z,5.30
2023-03-01T23:54:00.174Z,5.70
2023-03-01T23:56:31.531Z,3.53
2023-03-01T23:59:01.074Z,4.07
